createdAt,value
2022-09-29T00:12:46.258Z,3.48
2022-09-29T00:15:26.283Z,3.53
2022-09-29T00:18:13.118Z,3.53
2022-09-29T00:21:04.295Z,3.82
2022-09-29T00:23:38.128Z,3.74
2022-09-29T00:26:15.287Z,3.72
2022-09-29T00:39:26.285Z,3.81
2022-09-29T00:41:59.328Z,3.80
2022-09-29T00:45:07.294Z,3.59
2022-09-29T00:47:44.674Z,3.63
2022-09-29T00:50:32.263Z,3.43
2022-09-29T01:07:09.237Z,3.81
2022-09-29T01:09:50.255Z,3.69
2022-09-29T01:12:24.166Z,3.95
2022-09-29T01:15:00.257Z,3.69
2022-09-29T01:17:33.406Z,3.95
2022-09-29T01:20:18.253Z,3.94
2022-09-29T01:33:44.956Z,3.94
2022-09-29T01:36:29.579Z,3.69
2022-09-29T01:39:23.279Z,3.71
2022-09-29T01:42:04.532Z,3.65
2022-09-29T01:44:51.306Z,3.50
2022-09-29T01:47:31.450Z,3.54
2022-09-29T02:00:29.255Z,3.42
2022-09-29T02:03:20.259Z,3.43
2022-09-29T02:05:59.506Z,3.41
2022-09-29T02:08:48.255Z,3.65
2022-09-29T02:11:22.701Z,3.39
2022-09-29T02:27:38.241Z,3.42
2022-09-29T02:30:12.734Z,3.50
2022-09-29T02:32:46.257Z,3.49
2022-09-29T02:35:19.550Z,3.49
2022-09-29T02:38:12.308Z,3.45
2022-09-29T02:40:58.998Z,3.69
2022-09-29T02:54:19.289Z,3.75
2022-09-29T02:57:16.273Z,3.61
2022-09-29T03:00:01.642Z,3.76
2022-09-29T03:02:41.246Z,3.67
2022-09-29T03:05:18.591Z,3.55
2022-09-29T03:21:39.270Z,3.78
2022-09-29T03:24:12.365Z,3.58
2022-09-29T03:26:38.944Z,3.56
2022-09-29T03:29:19.378Z,3.69
2022-09-29T03:31:52.563Z,3.84
2022-09-29T03:48:19.638Z,3.65
2022-09-29T03:50:54.317Z,3.65
2022-09-29T03:53:27.250Z,3.50
2022-09-29T03:56:01.414Z,3.65
2022-09-29T03:58:35.250Z,3.72
2022-09-29T04:01:08.573Z,3.46
2022-09-29T04:13:58.212Z,3.66
2022-09-29T04:16:39.255Z,3.67
2022-09-29T04:19:12.416Z,3.72
2022-09-29T04:21:39.033Z,3.91
2022-09-29T04:24:19.261Z,3.70
2022-09-29T04:26:52.361Z,3.65
2022-09-29T04:39:45.222Z,3.85
2022-09-29T04:42:26.626Z,3.77
2022-09-29T04:44:59.363Z,3.91
2022-09-29T04:47:25.950Z,4.05
2022-09-29T04:50:06.239Z,4.00
2022-09-29T04:52:43.187Z,4.44
2022-09-29T04:55:25.257Z,4.10
2022-09-29T05:08:34.221Z,4.18
2022-09-29T05:11:10.294Z,4.23
2022-09-29T05:13:44.230Z,4.35
2022-09-29T05:16:17.459Z,4.46
2022-09-29T05:18:44.069Z,4.45
2022-09-29T05:21:28.149Z,4.41
2022-09-29T05:34:40.217Z,4.24
2022-09-29T05:37:13.310Z,4.40
2022-09-29T05:39:39.875Z,4.14
2022-09-29T05:42:20.220Z,4.42
2022-09-29T05:44:53.433Z,4.52
2022-09-29T05:47:19.978Z,4.40
2022-09-29T06:00:18.198Z,4.22
2022-09-29T06:02:58.229Z,4.36
2022-09-29T06:05:31.581Z,4.27
2022-09-29T06:08:05.242Z,4.17
2022-09-29T06:10:38.370Z,4.27
2022-09-29T06:13:04.917Z,4.54
2022-09-29T06:15:47.209Z,4.27
2022-09-29T06:28:57.198Z,4.27
2022-09-29T06:31:32.484Z,4.40
2022-09-29T06:34:08.231Z,4.12
2022-09-29T06:36:43.911Z,4.50
2022-09-29T06:39:20.319Z,4.41
2022-09-29T06:41:54.590Z,4.65
2022-09-29T06:54:44.181Z,5.20
2022-09-29T06:57:24.218Z,5.33
2022-09-29T06:59:57.298Z,5.50
2022-09-29T07:02:23.937Z,5.37
2022-09-29T07:05:04.226Z,5.69
2022-09-29T07:07:37.303Z,5.41
2022-09-29T07:20:26.173Z,5.49
2022-09-29T07:23:06.231Z,5.55
2022-09-29T07:25:51.553Z,5.73
2022-09-29T07:28:32.245Z,5.68
2022-09-29T07:31:14.929Z,5.68
2022-09-29T07:33:57.328Z,5.51
2022-09-29T07:36:32.498Z,5.76
2022-09-29T07:49:19.357Z,5.41
2022-09-29T07:51:54.233Z,5.37
2022-09-29T07:54:29.689Z,5.48
2022-09-29T07:57:03.729Z,5.38
2022-09-29T07:59:39.762Z,5.32
2022-09-29T08:02:24.313Z,5.53
2022-09-29T08:15:35.229Z,5.23
2022-09-29T08:18:08.500Z,5.20
2022-09-29T08:20:42.229Z,5.49
2022-09-29T08:23:15.374Z,5.42
2022-09-29T08:25:48.087Z,5.58
2022-09-29T08:42:33.011Z,5.77
2022-09-29T08:45:24.833Z,6.04
2022-09-29T08:48:22.415Z,5.89
2022-09-29T08:51:02.001Z,5.75
2022-09-29T08:54:01.699Z,6.14
2022-09-29T08:56:36.321Z,6.11
2022-09-29T09:09:56.165Z,6.10
2022-09-29T09:13:11.200Z,6.15
2022-09-29T09:16:06.774Z,6.00
2022-09-29T09:19:26.230Z,6.36
2022-09-29T09:22:19.462Z,6.22
2022-09-29T09:35:35.377Z,5.97
2022-09-29T09:38:25.181Z,6.29
2022-09-29T09:41:00.982Z,6.69
2022-09-29T09:43:50.198Z,7.39
2022-09-29T09:46:34.483Z,7.46
2022-09-29T10:03:11.259Z,7.07
2022-09-29T10:05:47.292Z,6.81
2022-09-29T10:08:31.185Z,6.70
2022-09-29T10:11:22.409Z,6.81
2022-09-29T10:14:10.186Z,6.40
2022-09-29T10:16:50.927Z,6.72
2022-09-29T10:29:52.153Z,6.39
2022-09-29T10:32:37.191Z,6.28
2022-09-29T10:35:24.223Z,6.44
2022-09-29T10:38:09.220Z,7.37
2022-09-29T10:40:55.407Z,7.80
2022-09-29T10:54:21.240Z,7.72
2022-09-29T10:57:05.190Z,7.10
2022-09-29T10:59:57.038Z,6.97
2022-09-29T11:02:42.226Z,7.55
2022-09-29T11:05:20.950Z,7.48
2022-09-29T11:21:27.195Z,7.02
2022-09-29T11:24:16.302Z,7.20
2022-09-29T11:27:05.193Z,7.19
2022-09-29T11:29:52.119Z,7.02
2022-09-29T11:32:53.182Z,7.08
2022-09-29T11:35:45.542Z,6.84
2022-09-29T11:49:17.327Z,6.68
2022-09-29T11:52:28.194Z,6.91
2022-09-29T11:55:22.248Z,6.50
2022-09-29T11:58:18.181Z,7.05
2022-09-29T12:01:08.878Z,6.69
2022-09-29T12:14:41.176Z,6.82
2022-09-29T12:17:24.174Z,6.77
2022-09-29T12:20:05.878Z,6.38
2022-09-29T12:22:46.203Z,6.18
2022-09-29T12:25:25.345Z,6.34
2022-09-29T12:41:47.193Z,6.59
2022-09-29T12:44:30.030Z,6.76
2022-09-29T12:47:24.217Z,6.77
2022-09-29T12:50:10.499Z,6.81
2022-09-29T12:52:59.240Z,6.33
2022-09-29T12:55:47.307Z,6.56
2022-09-29T13:09:07.171Z,6.04
2022-09-29T13:12:22.224Z,6.06
2022-09-29T13:15:27.296Z,6.24
2022-09-29T13:18:54.255Z,5.95
2022-09-29T13:21:53.209Z,6.06
2022-09-29T13:35:00.151Z,6.87
2022-09-29T13:37:53.166Z,6.67
2022-09-29T13:40:29.454Z,7.14
2022-09-29T13:43:04.181Z,7.02
2022-09-29T13:45:43.442Z,6.66
2022-09-29T14:02:06.261Z,6.22
2022-09-29T14:04:51.202Z,6.15
2022-09-29T14:07:50.254Z,6.49
2022-09-29T14:10:36.573Z,6.47
2022-09-29T14:13:26.670Z,6.49
2022-09-29T14:16:17.646Z,6.34
2022-09-29T14:29:25.139Z,6.88
2022-09-29T14:32:08.197Z,6.85
2022-09-29T14:34:41.585Z,7.03
2022-09-29T14:37:25.167Z,6.70
2022-09-29T14:40:02.139Z,7.04
2022-09-29T14:42:42.157Z,7.12
2022-09-29T14:56:17.150Z,7.24
2022-09-29T14:59:11.139Z,7.07
2022-09-29T15:02:28.221Z,7.18
2022-09-29T15:05:13.632Z,7.11
2022-09-29T15:07:54.183Z,7.10
2022-09-29T15:10:30.542Z,6.74
2022-09-29T15:24:12.154Z,6.72
2022-09-29T15:26:53.161Z,6.49
2022-09-29T15:29:26.449Z,6.70
2022-09-29T15:32:00.157Z,6.40
2022-09-29T15:34:38.496Z,6.61
2022-09-29T15:37:23.205Z,6.86
2022-09-29T15:50:37.179Z,6.42
2022-09-29T15:53:18.878Z,6.30
2022-09-29T15:55:59.150Z,6.29
2022-09-29T15:58:43.024Z,6.46
2022-09-29T16:01:23.226Z,6.36
2022-09-29T16:15:22.046Z,6.66
2022-09-29T16:17:56.790Z,6.43
2022-09-29T16:20:35.151Z,6.69
2022-09-29T16:23:17.152Z,6.71
2022-09-29T16:26:16.153Z,6.62
2022-09-29T16:29:22.643Z,6.54
2022-09-29T16:32:43.263Z,6.86
2022-09-29T16:42:32.143Z,7.15
2022-09-29T16:45:19.159Z,6.96
2022-09-29T16:47:54.282Z,6.89
2022-09-29T16:50:27.159Z,6.96
2022-09-29T16:53:00.661Z,6.82
2022-09-29T16:55:34.173Z,6.94
2022-09-29T17:08:52.547Z,7.36
2022-09-29T17:11:26.802Z,7.00
2022-09-29T17:14:01.158Z,7.03
2022-09-29T17:16:34.375Z,7.31
2022-09-29T17:19:00.918Z,7.18
2022-09-29T17:21:42.023Z,7.50
2022-09-29T17:35:36.153Z,7.19
2022-09-29T17:38:12.101Z,7.37
2022-09-29T17:40:57.180Z,7.48
2022-09-29T17:43:31.561Z,7.55
2022-09-29T17:46:07.202Z,7.06
2022-09-29T17:48:41.158Z,7.02
2022-09-29T17:51:20.150Z,7.19
2022-09-29T18:04:29.145Z,7.43
2022-09-29T18:07:04.142Z,7.60
2022-09-29T18:09:37.221Z,7.61
2022-09-29T18:12:10.347Z,7.29
2022-09-29T18:14:36.899Z,7.60
2022-09-29T18:17:17.174Z,8.09
2022-09-29T18:30:32.145Z,8.19
2022-09-29T18:33:10.069Z,8.21
2022-09-29T18:35:59.647Z,7.93
2022-09-29T18:38:34.656Z,7.64
2022-09-29T18:41:08.158Z,7.61
2022-09-29T18:57:44.101Z,7.60
2022-09-29T19:00:27.158Z,7.80
2022-09-29T19:03:02.064Z,7.64
2022-09-29T19:05:40.158Z,7.71
2022-09-29T19:08:15.886Z,7.91
2022-09-29T19:10:58.103Z,7.37
2022-09-29T19:24:10.156Z,7.33
2022-09-29T19:26:43.639Z,7.40
2022-09-29T19:29:18.367Z,7.44
2022-09-29T19:31:51.251Z,7.70
2022-09-29T19:34:18.899Z,7.03
2022-09-29T19:36:59.156Z,7.67
2022-09-29T19:50:12.122Z,7.81
2022-09-29T19:52:45.175Z,7.46
2022-09-29T19:55:11.758Z,7.39
2022-09-29T19:57:55.156Z,7.91
2022-09-29T20:00:28.427Z,7.32
2022-09-29T20:02:55.012Z,7.61
2022-09-29T20:16:07.254Z,8.22
2022-09-29T20:18:48.965Z,8.25
2022-09-29T20:21:22.305Z,8.60
2022-09-29T20:23:55.160Z,8.85
2022-09-29T20:26:28.542Z,8.50
2022-09-29T20:29:02.155Z,8.30
2022-09-29T20:31:37.596Z,8.61
2022-09-29T20:44:33.111Z,9.00
2022-09-29T20:47:15.130Z,8.96
2022-09-29T20:49:48.185Z,8.78
2022-09-29T20:52:14.734Z,8.64
2022-09-29T20:54:55.119Z,8.62
2022-09-29T20:57:28.383Z,8.58
2022-09-29T21:10:18.110Z,9.21
2022-09-29T21:12:58.133Z,8.90
2022-09-29T21:15:33.644Z,9.11
2022-09-29T21:18:07.121Z,9.14
2022-09-29T21:20:40.377Z,9.07
2022-09-29T21:23:06.927Z,9.37
2022-09-29T21:36:21.106Z,9.86
2022-09-29T21:39:06.236Z,9.79
2022-09-29T21:41:43.406Z,9.42
2022-09-29T21:44:20.270Z,9.34
2022-09-29T21:46:53.271Z,9.43
2022-09-29T21:49:27.133Z,9.84
2022-09-29T21:52:02.407Z,9.92
2022-09-29T22:04:49.089Z,9.60
2022-09-29T22:07:31.151Z,9.69
2022-09-29T22:10:05.916Z,9.81
2022-09-29T22:12:39.105Z,10.06
2022-09-29T22:15:12.194Z,10.07
2022-09-29T22:17:38.734Z,10.14
2022-09-29T22:30:35.093Z,10.15
2022-09-29T22:33:15.155Z,9.56
2022-09-29T22:35:56.096Z,9.87
2022-09-29T22:38:36.127Z,10.35
2022-09-29T22:41:11.654Z,10.14
2022-09-29T22:57:26.122Z,10.55
2022-09-29T22:59:59.302Z,10.60
2022-09-29T23:02:25.851Z,11.00
2022-09-29T23:05:06.102Z,11.27
2022-09-29T23:07:39.370Z,11.49
2022-09-29T23:10:14.134Z,11.14
2022-09-29T23:12:49.357Z,11.73
2022-09-29T23:25:36.097Z,12.14
2022-09-29T23:28:18.126Z,12.02
2022-09-29T23:30:52.334Z,11.59
2022-09-29T23:33:26.114Z,11.95
2022-09-29T23:36:10.733Z,12.00
2022-09-29T23:52:32.140Z,11.29
2022-09-29T23:55:06.202Z,11.66
2022-09-29T23:57:39.110Z,11.46
